sensor_id;sensor_type;location;lat;lon;timestamp;pressure;altitude;pressure_sealevel;temperature;humidity
70684;BME280;58263;48.146;11.440;2024-02-26T00:00:06;93941.06;;;4.74;65.13
70684;BME280;58263;48.146;11.440;2024-02-26T00:02:37;93938.41;;;4.74;64.40
70684;BME280;58263;48.146;11.440;2024-02-26T00:05:07;93933.00;;;4.69;64.56
70684;BME280;58263;48.146;11.440;2024-02-26T00:07:32;93932.88;;;4.64;65.10
70684;BME280;58263;48.146;11.440;2024-02-26T00:09:58;93939.72;;;4.60;64.74
70684;BME280;58263;48.146;11.440;2024-02-26T00:12:23;93942.19;;;4.50;64.91
70684;BME280;58263;48.146;11.440;2024-02-26T00:14:48;93941.53;;;4.43;65.14
70684;BME280;58263;48.146;11.440;2024-02-26T00:17:15;93949.75;;;4.29;65.35
70684;BME280;58263;48.146;11.440;2024-02-26T00:19:40;93949.38;;;4.37;66.12
70684;BME280;58263;48.146;11.440;2024-02-26T00:22:06;93948.94;;;4.40;64.92
70684;BME280;58263;48.146;11.440;2024-02-26T00:24:31;93939.69;;;4.43;65.00
70684;BME280;58263;48.146;11.440;2024-02-26T00:26:56;93931.94;;;4.42;64.81
70684;BME280;58263;48.146;11.440;2024-02-26T00:29:22;93935.50;;;4.47;64.38
70684;BME280;58263;48.146;11.440;2024-02-26T00:31:47;93931.78;;;4.48;64.03
70684;BME280;58263;48.146;11.440;2024-02-26T00:34:12;93935.72;;;4.46;64.13
70684;BME280;58263;48.146;11.440;2024-02-26T00:36:38;93934.13;;;4.45;63.74
70684;BME280;58263;48.146;11.440;2024-02-26T00:39:03;93930.34;;;4.40;63.78
70684;BME280;58263;48.146;11.440;2024-02-26T00:41:28;93934.38;;;4.43;63.58
70684;BME280;58263;48.146;11.440;2024-02-26T00:43:54;93917.97;;;4.46;63.57
70684;BME280;58263;48.146;11.440;2024-02-26T00:46:19;93925.59;;;4.43;63.68
70684;BME280;58263;48.146;11.440;2024-02-26T00:48:44;93917.63;;;4.43;63.53
70684;BME280;58263;48.146;11.440;2024-02-26T00:51:10;93915.34;;;4.34;63.67
70684;BME280;58263;48.146;11.440;2024-02-26T00:53:35;93912.47;;;4.36;63.77
70684;BME280;58263;48.146;11.440;2024-02-26T00:56:00;93919.75;;;4.29;63.91
70684;BME280;58263;48.146;11.440;2024-02-26T00:58:26;93928.31;;;3.90;64.50
70684;BME280;58263;48.146;11.440;2024-02-26T01:00:52;93922.00;;;3.67;65.84
70684;BME280;58263;48.146;11.440;2024-02-26T01:03:18;93931.03;;;3.95;65.75
70684;BME280;58263;48.146;11.440;2024-02-26T01:05:43;93921.19;;;4.07;64.79
70684;BME280;58263;48.146;11.440;2024-02-26T01:08:09;93926.69;;;3.65;65.85
70684;BME280;58263;48.146;11.440;2024-02-26T01:10:34;93925.91;;;3.77;65.75
70684;BME280;58263;48.146;11.440;2024-02-26T01:13:00;93928.09;;;3.80;65.19
70684;BME280;58263;48.146;11.440;2024-02-26T01:15:25;93923.91;;;3.84;65.16
70684;BME280;58263;48.146;11.440;2024-02-26T01:17:50;93922.44;;;3.76;65.99
70684;BME280;58263;48.146;11.440;2024-02-26T01:20:16;93914.47;;;3.88;65.50
70684;BME280;58263;48.146;11.440;2024-02-26T01:22:42;93911.47;;;3.84;65.79
70684;BME280;58263;48.146;11.440;2024-02-26T01:25:08;93915.97;;;3.84;65.71
70684;BME280;58263;48.146;11.440;2024-02-26T01:27:34;93911.09;;;3.93;65.37
70684;BME280;58263;48.146;11.440;2024-02-26T01:29:59;93907.16;;;3.95;64.74
70684;BME280;58263;48.146;11.440;2024-02-26T01:32:25;93908.34;;;3.87;65.40
70684;BME280;58263;48.146;11.440;2024-02-26T01:34:50;93915.13;;;3.95;64.84
70684;BME280;58263;48.146;11.440;2024-02-26T01:37:15;93917.78;;;3.95;65.49
70684;BME280;58263;48.146;11.440;2024-02-26T01:39:40;93922.06;;;3.96;65.21
70684;BME280;58263;48.146;11.440;2024-02-26T01:42:07;93906.75;;;3.86;65.89
70684;BME280;58263;48.146;11.440;2024-02-26T01:44:32;93906.13;;;3.96;65.83
70684;BME280;58263;48.146;11.440;2024-02-26T01:46:57;93911.69;;;3.95;65.30
70684;BME280;58263;48.146;11.440;2024-02-26T01:49:23;93911.91;;;3.93;64.98
70684;BME280;58263;48.146;11.440;2024-02-26T01:51:48;93908.34;;;3.87;64.70
70684;BME280;58263;48.146;11.440;2024-02-26T01:54:14;93912.59;;;3.88;65.32
70684;BME280;58263;48.146;11.440;2024-02-26T01:56:40;93906.03;;;3.91;64.76
70684;BME280;58263;48.146;11.440;2024-02-26T01:59:06;93899.34;;;3.88;65.07
70684;BME280;58263;48.146;11.440;2024-02-26T02:01:33;93891.19;;;3.90;64.41
70684;BME280;58263;48.146;11.440;2024-02-26T02:04:00;93896.13;;;3.86;64.72
70684;BME280;58263;48.146;11.440;2024-02-26T02:06:27;93900.16;;;3.89;63.91
70684;BME280;58263;48.146;11.440;2024-02-26T02:08:54;93899.88;;;3.62;64.90
70684;BME280;58263;48.146;11.440;2024-02-26T02:11:19;93891.88;;;3.73;65.44
70684;BME280;58263;48.146;11.440;2024-02-26T02:13:44;93892.47;;;3.64;65.30
70684;BME280;58263;48.146;11.440;2024-02-26T02:16:10;93888.19;;;3.75;65.10
70684;BME280;58263;48.146;11.440;2024-02-26T02:18:35;93889.47;;;3.72;65.09
70684;BME280;58263;48.146;11.440;2024-02-26T02:21:01;93888.00;;;3.64;65.67
70684;BME280;58263;48.146;11.440;2024-02-26T02:23:26;93884.19;;;3.60;65.55
70684;BME280;58263;48.146;11.440;2024-02-26T02:25:52;93885.00;;;3.61;65.56
70684;BME280;58263;48.146;11.440;2024-02-26T02:28:19;93882.09;;;3.62;64.89
70684;BME280;58263;48.146;11.440;2024-02-26T02:30:44;93886.16;;;3.53;65.06
70684;BME280;58263;48.146;11.440;2024-02-26T02:33:10;93886.84;;;3.48;65.51
70684;BME280;58263;48.146;11.440;2024-02-26T02:35:36;93876.50;;;3.47;65.31
70684;BME280;58263;48.146;11.440;2024-02-26T02:38:02;93897.81;;;3.40;65.64
70684;BME280;58263;48.146;11.440;2024-02-26T02:40:28;93894.13;;;3.17;66.10
70684;BME280;58263;48.146;11.440;2024-02-26T02:42:53;93893.09;;;3.30;66.27
70684;BME280;58263;48.146;11.440;2024-02-26T02:45:18;93894.72;;;3.31;66.47
70684;BME280;58263;48.146;11.440;2024-02-26T02:47:44;93890.88;;;3.27;66.53
70684;BME280;58263;48.146;11.440;2024-02-26T02:50:09;93892.50;;;3.28;66.86
70684;BME280;58263;48.146;11.440;2024-02-26T02:52:34;93895.03;;;3.35;66.36
70684;BME280;58263;48.146;11.440;2024-02-26T02:55:00;93891.00;;;3.32;66.10
70684;BME280;58263;48.146;11.440;2024-02-26T02:57:25;93889.06;;;3.28;66.13
70684;BME280;58263;48.146;11.440;2024-02-26T02:59:51;93888.25;;;3.27;66.95
70684;BME280;58263;48.146;11.440;2024-02-26T03:02:16;93888.25;;;3.27;66.54
70684;BME280;58263;48.146;11.440;2024-02-26T03:04:41;93887.34;;;3.33;66.78
70684;BME280;58263;48.146;11.440;2024-02-26T03:07:06;93881.56;;;3.36;65.78
70684;BME280;58263;48.146;11.440;2024-02-26T03:09:32;93877.75;;;3.32;66.36
70684;BME280;58263;48.146;11.440;2024-02-26T03:11:57;93867.03;;;3.39;65.70
70684;BME280;58263;48.146;11.440;2024-02-26T03:14:22;93873.38;;;3.38;65.91
70684;BME280;58263;48.146;11.440;2024-02-26T03:16:48;93875.34;;;3.43;65.86
70684;BME280;58263;48.146;11.440;2024-02-26T03:19:16;93874.53;;;3.42;66.27
70684;BME280;58263;48.146;11.440;2024-02-26T03:21:41;93882.94;;;3.39;66.56
70684;BME280;58263;48.146;11.440;2024-02-26T03:24:07;93882.81;;;3.46;66.39
70684;BME280;58263;48.146;11.440;2024-02-26T03:26:35;93882.50;;;3.30;66.37
70684;BME280;58263;48.146;11.440;2024-02-26T03:29:00;93884.81;;;3.38;66.99
70684;BME280;58263;48.146;11.440;2024-02-26T03:31:27;93879.03;;;3.42;66.81
70684;BME280;58263;48.146;11.440;2024-02-26T03:33:52;93888.59;;;3.31;66.87
70684;BME280;58263;48.146;11.440;2024-02-26T03:36:18;93881.34;;;3.26;66.45
70684;BME280;58263;48.146;11.440;2024-02-26T03:38:43;93881.00;;;3.34;66.85
70684;BME280;58263;48.146;11.440;2024-02-26T03:41:08;93891.13;;;3.37;66.90
70684;BME280;58263;48.146;11.440;2024-02-26T03:43:33;93886.41;;;3.40;66.86
70684;BME280;58263;48.146;11.440;2024-02-26T03:45:59;93893.06;;;3.42;66.34
70684;BME280;58263;48.146;11.440;2024-02-26T03:48:25;93882.72;;;3.41;66.36
70684;BME280;58263;48.146;11.440;2024-02-26T03:50:50;93878.13;;;3.48;65.84
70684;BME280;58263;48.146;11.440;2024-02-26T03:53:15;93873.97;;;3.52;66.37
70684;BME280;58263;48.146;11.440;2024-02-26T03:55:41;93879.25;;;3.52;66.08
70684;BME280;58263;48.146;11.440;2024-02-26T03:58:07;93876.50;;;3.47;65.96
70684;BME280;58263;48.146;11.440;2024-02-26T04:00:32;93874.88;;;3.46;66.25
70684;BME280;58263;48.146;11.440;2024-02-26T04:02:57;93872.34;;;3.51;66.13
70684;BME280;58263;48.146;11.440;2024-02-26T04:05:22;93872.56;;;3.49;65.97
70684;BME280;58263;48.146;11.440;2024-02-26T04:07:48;93872.34;;;3.51;65.94
70684;BME280;58263;48.146;11.440;2024-02-26T04:10:13;93869.94;;;3.37;66.28
70684;BME280;58263;48.146;11.440;2024-02-26T04:12:40;93874.78;;;3.17;67.93
70684;BME280;58263;48.146;11.440;2024-02-26T04:15:07;93884.13;;;3.31;66.91
70684;BME280;58263;48.146;11.440;2024-02-26T04:17:32;93882.03;;;3.33;67.15
70684;BME280;58263;48.146;11.440;2024-02-26T04:19:58;93883.53;;;3.29;67.49
70684;BME280;58263;48.146;11.440;2024-02-26T04:22:23;93879.38;;;3.21;66.98
70684;BME280;58263;48.146;11.440;2024-02-26T04:24:49;93879.28;;;3.16;67.07
70684;BME280;58263;48.146;11.440;2024-02-26T04:27:14;93880.19;;;3.22;67.58
70684;BME280;58263;48.146;11.440;2024-02-26T04:29:39;93881.78;;;3.23;67.27
70684;BME280;58263;48.146;11.440;2024-02-26T04:32:05;93873.28;;;3.21;67.10
70684;BME280;58263;48.146;11.440;2024-02-26T04:34:30;93870.63;;;3.21;67.59
70684;BME280;58263;48.146;11.440;2024-02-26T04:36:56;93874.56;;;3.18;67.03
70684;BME280;58263;48.146;11.440;2024-02-26T04:39:21;93879.38;;;3.21;67.01
70684;BME280;58263;48.146;11.440;2024-02-26T04:41:46;93881.69;;;3.06;67.38
70684;BME280;58263;48.146;11.440;2024-02-26T04:44:11;93882.97;;;3.15;67.11
70684;BME280;58263;48.146;11.440;2024-02-26T04:46:37;93876.41;;;3.06;67.34
70684;BME280;58263;48.146;11.440;2024-02-26T04:49:02;93879.84;;;3.07;67.23
70684;BME280;58263;48.146;11.440;2024-02-26T04:51:27;93885.03;;;3.01;67.63
70684;BME280;58263;48.146;11.440;2024-02-26T04:53:52;93879.28;;;3.04;67.87
70684;BME280;58263;48.146;11.440;2024-02-26T04:56:22;93878.34;;;2.99;67.61
70684;BME280;58263;48.146;11.440;2024-02-26T04:58:47;93884.44;;;2.99;68.12
70684;BME280;58263;48.146;11.440;2024-02-26T05:01:13;93878.81;;;2.84;67.84
70684;BME280;58263;48.146;11.440;2024-02-26T05:03:38;93891.25;;;2.95;67.92
70684;BME280;58263;48.146;11.440;2024-02-26T05:06:05;93888.34;;;2.85;68.22
70684;BME280;58263;48.146;11.440;2024-02-26T05:08:30;93891.72;;;2.92;68.29
70684;BME280;58263;48.146;11.440;2024-02-26T05:10:56;93892.16;;;2.89;68.42
70684;BME280;58263;48.146;11.440;2024-02-26T05:13:21;93888.81;;;2.94;68.46
70684;BME280;58263;48.146;11.440;2024-02-26T05:15:46;93883.28;;;2.95;68.01
70684;BME280;58263;48.146;11.440;2024-02-26T05:18:14;93898.84;;;2.80;68.03
70684;BME280;58263;48.146;11.440;2024-02-26T05:20:40;93894.91;;;2.82;68.56
70684;BME280;58263;48.146;11.440;2024-02-26T05:23:05;93887.31;;;2.86;68.61
70684;BME280;58263;48.146;11.440;2024-02-26T05:25:30;93894.22;;;2.87;68.88
70684;BME280;58263;48.146;11.440;2024-02-26T05:27:56;93897.91;;;2.86;68.96
70684;BME280;58263;48.146;11.440;2024-02-26T05:30:21;93897.47;;;2.89;68.66
70684;BME280;58263;48.146;11.440;2024-02-26T05:32:46;93901.56;;;2.85;68.48
70684;BME280;58263;48.146;11.440;2024-02-26T05:35:12;93903.53;;;2.66;68.88
70684;BME280;58263;48.146;11.440;2024-02-26T05:37:37;93905.84;;;2.86;68.54
70684;BME280;58263;48.146;11.440;2024-02-26T05:40:03;93901.56;;;2.85;68.45
70684;BME280;58263;48.146;11.440;2024-02-26T05:42:29;93906.78;;;2.80;68.70
70684;BME280;58263;48.146;11.440;2024-02-26T05:44:54;93898.94;;;2.85;69.20
70684;BME280;58263;48.146;11.440;2024-02-26T05:47:20;93905.06;;;2.97;69.09
70684;BME280;58263;48.146;11.440;2024-02-26T05:49:45;93910.00;;;2.94;68.98
70684;BME280;58263;48.146;11.440;2024-02-26T05:52:10;93906.91;;;2.97;69.07
70684;BME280;58263;48.146;11.440;2024-02-26T05:54:35;93903.13;;;3.04;69.22
70684;BME280;58263;48.146;11.440;2024-02-26T05:57:01;93904.28;;;3.09;68.82
70684;BME280;58263;48.146;11.440;2024-02-26T05:59:27;93908.63;;;3.15;68.40
70684;BME280;58263;48.146;11.440;2024-02-26T06:01:52;93911.97;;;2.98;68.83
70684;BME280;58263;48.146;11.440;2024-02-26T06:04:17;93915.88;;;2.84;68.97
70684;BME280;58263;48.146;11.440;2024-02-26T06:06:44;93913.13;;;3.02;68.46
70684;BME280;58263;48.146;11.440;2024-02-26T06:09:10;93918.53;;;3.08;68.62
70684;BME280;58263;48.146;11.440;2024-02-26T06:11:36;93923.50;;;3.16;68.84
70684;BME280;58263;48.146;11.440;2024-02-26T06:14:01;93927.41;;;3.25;68.06
70684;BME280;58263;48.146;11.440;2024-02-26T06:16:26;93931.22;;;3.29;68.33
70684;BME280;58263;48.146;11.440;2024-02-26T06:18:52;93930.19;;;3.30;67.59
70684;BME280;58263;48.146;11.440;2024-02-26T06:21:18;93931.94;;;3.25;68.39
70684;BME280;58263;48.146;11.440;2024-02-26T06:23:43;93945.16;;;3.36;69.34
70684;BME280;58263;48.146;11.440;2024-02-26T06:26:08;93943.09;;;3.38;69.75
70684;BME280;58263;48.146;11.440;2024-02-26T06:28:35;93950.59;;;3.42;69.44
70684;BME280;58263;48.146;11.440;2024-02-26T06:31:01;93961.06;;;3.36;69.24
70684;BME280;58263;48.146;11.440;2024-02-26T06:33:26;93964.16;;;3.21;69.45
70684;BME280;58263;48.146;11.440;2024-02-26T06:35:51;93965.31;;;3.26;70.60
70684;BME280;58263;48.146;11.440;2024-02-26T06:38:17;93971.91;;;3.35;70.00
70684;BME280;58263;48.146;11.440;2024-02-26T06:40:44;93966.94;;;3.50;69.68
70684;BME280;58263;48.146;11.440;2024-02-26T06:43:09;93972.94;;;3.58;69.59
70684;BME280;58263;48.146;11.440;2024-02-26T06:45:34;93975.25;;;3.66;70.09
70684;BME280;58263;48.146;11.440;2024-02-26T06:48:00;93988.84;;;3.69;71.20
70684;BME280;58263;48.146;11.440;2024-02-26T06:50:25;93985.28;;;3.76;70.56
70684;BME280;58263;48.146;11.440;2024-02-26T06:52:50;93987.91;;;3.76;69.13
70684;BME280;58263;48.146;11.440;2024-02-26T06:55:16;93993.44;;;3.62;70.13
70684;BME280;58263;48.146;11.440;2024-02-26T06:57:41;93988.03;;;3.81;70.93
70684;BME280;58263;48.146;11.440;2024-02-26T07:00:07;93984.09;;;3.95;69.60
70684;BME280;58263;48.146;11.440;2024-02-26T07:02:32;93989.63;;;4.05;69.11
70684;BME280;58263;48.146;11.440;2024-02-26T07:04:57;93993.53;;;4.15;67.81
70684;BME280;58263;48.146;11.440;2024-02-26T07:07:23;94002.88;;;4.05;68.79
70684;BME280;58263;48.146;11.440;2024-02-26T07:09:49;94005.19;;;4.14;68.31
70684;BME280;58263;48.146;11.440;2024-02-26T07:12:14;93998.09;;;4.31;69.04
70684;BME280;58263;48.146;11.440;2024-02-26T07:14:41;93995.44;;;4.43;67.83
70684;BME280;58263;48.146;11.440;2024-02-26T07:17:06;93997.38;;;4.48;67.55
70684;BME280;58263;48.146;11.440;2024-02-26T07:19:31;94008.16;;;4.58;67.41
70684;BME280;58263;48.146;11.440;2024-02-26T07:21:57;94002.50;;;4.66;67.97
70684;BME280;58263;48.146;11.440;2024-02-26T07:24:22;93999.25;;;4.76;67.31
70684;BME280;58263;48.146;11.440;2024-02-26T07:26:47;93999.50;;;4.91;67.19
70684;BME280;58263;48.146;11.440;2024-02-26T07:29:13;94002.56;;;5.00;66.30
70684;BME280;58263;48.146;11.440;2024-02-26T07:31:38;93990.50;;;5.10;66.35
70684;BME280;58263;48.146;11.440;2024-02-26T07:34:03;93995.91;;;5.15;66.43
70684;BME280;58263;48.146;11.440;2024-02-26T07:36:28;94009.88;;;4.93;66.21
70684;BME280;58263;48.146;11.440;2024-02-26T07:38:53;94010.03;;;4.86;66.17
70684;BME280;58263;48.146;11.440;2024-02-26T07:41:20;94005.91;;;5.07;66.21
70684;BME280;58263;48.146;11.440;2024-02-26T07:43:45;94002.38;;;5.19;65.97
70684;BME280;58263;48.146;11.440;2024-02-26T07:46:11;94007.69;;;5.19;66.26
70684;BME280;58263;48.146;11.440;2024-02-26T07:48:37;94010.59;;;5.17;66.68
70684;BME280;58263;48.146;11.440;2024-02-26T07:51:03;94012.84;;;5.25;66.13
70684;BME280;58263;48.146;11.440;2024-02-26T07:53:29;94011.06;;;5.31;65.58
70684;BME280;58263;48.146;11.440;2024-02-26T07:55:54;94018.34;;;5.36;65.82
70684;BME280;58263;48.146;11.440;2024-02-26T07:58:20;94027.16;;;5.07;66.23
70684;BME280;58263;48.146;11.440;2024-02-26T08:00:45;94027.25;;;5.13;66.38
70684;BME280;58263;48.146;11.440;2024-02-26T08:03:11;94017.91;;;5.27;65.35
70684;BME280;58263;48.146;11.440;2024-02-26T08:05:38;94023.97;;;5.22;65.70
70684;BME280;58263;48.146;11.440;2024-02-26T08:08:06;94030.06;;;5.23;65.65
70684;BME280;58263;48.146;11.440;2024-02-26T08:10:31;94017.84;;;5.56;65.12
70684;BME280;58263;48.146;11.440;2024-02-26T08:12:56;94017.19;;;5.83;64.52
70684;BME280;58263;48.146;11.440;2024-02-26T08:15:29;94009.47;;;5.98;64.02
70684;BME280;58263;48.146;11.440;2024-02-26T08:17:55;94007.66;;;6.21;64.02
70684;BME280;58263;48.146;11.440;2024-02-26T08:20:20;94016.84;;;6.30;62.70
70684;BME280;58263;48.146;11.440;2024-02-26T08:22:45;94008.47;;;6.43;62.90
70684;BME280;58263;48.146;11.440;2024-02-26T08:25:11;94013.06;;;6.48;62.79
70684;BME280;58263;48.146;11.440;2024-02-26T08:27:36;94011.25;;;6.54;62.69
70684;BME280;58263;48.146;11.440;2024-02-26T08:30:01;94012.88;;;6.55;62.81
70684;BME280;58263;48.146;11.440;2024-02-26T08:32:27;94015.59;;;6.60;62.81
70684;BME280;58263;48.146;11.440;2024-02-26T08:34:52;94033.53;;;6.92;62.51
70684;BME280;58263;48.146;11.440;2024-02-26T08:37:18;94025.94;;;7.06;61.54
70684;BME280;58263;48.146;11.440;2024-02-26T08:39:43;94031.13;;;7.18;61.10
70684;BME280;58263;48.146;11.440;2024-02-26T08:42:08;94034.31;;;7.15;60.78
70684;BME280;58263;48.146;11.440;2024-02-26T08:44:33;94036.41;;;7.13;60.76
70684;BME280;58263;48.146;11.440;2024-02-26T08:46:59;94035.44;;;7.24;60.64
70684;BME280;58263;48.146;11.440;2024-02-26T08:49:24;94039.19;;;7.23;61.02
70684;BME280;58263;48.146;11.440;2024-02-26T08:51:49;94035.50;;;7.29;60.60
70684;BME280;58263;48.146;11.440;2024-02-26T08:54:14;94029.13;;;7.30;60.88
70684;BME280;58263;48.146;11.440;2024-02-26T08:56:40;94028.13;;;7.36;60.62
70684;BME280;58263;48.146;11.440;2024-02-26T08:59:05;94029.75;;;7.42;60.73
70684;BME280;58263;48.146;11.440;2024-02-26T09:01:33;94025.00;;;7.44;60.43
70684;BME280;58263;48.146;11.440;2024-02-26T09:03:58;94031.66;;;7.47;59.91
70684;BME280;58263;48.146;11.440;2024-02-26T09:06:24;94037.88;;;7.53;60.00
70684;BME280;58263;48.146;11.440;2024-02-26T09:08:49;94031.50;;;7.59;60.63
70684;BME280;58263;48.146;11.440;2024-02-26T09:11:14;94031.59;;;7.69;60.12
70684;BME280;58263;48.146;11.440;2024-02-26T09:13:40;94034.31;;;7.74;59.97
70684;BME280;58263;48.146;11.440;2024-02-26T09:16:05;94024.50;;;7.85;60.04
70684;BME280;58263;48.146;11.440;2024-02-26T09:18:31;94027.00;;;7.97;59.87
70684;BME280;58263;48.146;11.440;2024-02-26T09:20:56;94026.78;;;8.04;59.52
70684;BME280;58263;48.146;11.440;2024-02-26T09:23:21;94028.72;;;8.19;58.86
70684;BME280;58263;48.146;11.440;2024-02-26T09:25:46;94022.44;;;8.40;59.24
70684;BME280;58263;48.146;11.440;2024-02-26T09:28:12;94022.56;;;8.61;58.47
70684;BME280;58263;48.146;11.440;2024-02-26T09:30:37;94013.59;;;8.88;57.34
70684;BME280;58263;48.146;11.440;2024-02-26T09:33:04;94016.84;;;9.10;56.55
70684;BME280;58263;48.146;11.440;2024-02-26T09:35:29;94009.94;;;9.40;56.42
70684;BME280;58263;48.146;11.440;2024-02-26T09:37:55;94014.25;;;9.57;55.27
70684;BME280;58263;48.146;11.440;2024-02-26T09:40:20;94007.84;;;9.68;54.89
70684;BME280;58263;48.146;11.440;2024-02-26T09:42:47;94009.97;;;9.76;54.22
70684;BME280;58263;48.146;11.440;2024-02-26T09:45:18;94011.56;;;9.88;53.54
70684;BME280;58263;48.146;11.440;2024-02-26T09:47:44;94009.97;;;10.02;53.31
70684;BME280;58263;48.146;11.440;2024-02-26T09:50:11;94004.56;;;10.07;53.18
70684;BME280;58263;48.146;11.440;2024-02-26T09:52:38;94004.03;;;10.21;52.13
70684;BME280;58263;48.146;11.440;2024-02-26T09:55:05;93990.06;;;10.34;51.98
70684;BME280;58263;48.146;11.440;2024-02-26T09:57:31;93995.66;;;10.48;51.41
70684;BME280;58263;48.146;11.440;2024-02-26T09:59:59;93997.25;;;10.59;50.99
70684;BME280;58263;48.146;11.440;2024-02-26T10:02:29;94000.66;;;10.75;50.81
70684;BME280;58263;48.146;11.440;2024-02-26T10:04:56;94000.88;;;10.89;49.63
70684;BME280;58263;48.146;11.440;2024-02-26T10:07:22;93995.16;;;11.06;48.62
70684;BME280;58263;48.146;11.440;2024-02-26T10:09:48;93992.66;;;11.20;47.64
70684;BME280;58263;48.146;11.440;2024-02-26T10:12:14;93986.88;;;11.42;47.68
70684;BME280;58263;48.146;11.440;2024-02-26T10:14:42;93988.84;;;11.71;46.98
70684;BME280;58263;48.146;11.440;2024-02-26T10:17:07;93979.78;;;11.96;46.34
70684;BME280;58263;48.146;11.440;2024-02-26T10:19:33;93990.56;;;12.21;45.37
70684;BME280;58263;48.146;11.440;2024-02-26T10:22:00;93983.38;;;12.40;44.83
70684;BME280;58263;48.146;11.440;2024-02-26T10:24:27;93985.34;;;12.59;44.27
70684;BME280;58263;48.146;11.440;2024-02-26T10:26:54;93984.56;;;12.77;42.72
70684;BME280;58263;48.146;11.440;2024-02-26T10:29:21;93988.94;;;12.92;41.95
70684;BME280;58263;48.146;11.440;2024-02-26T10:31:46;93975.06;;;12.85;41.35
70684;BME280;58263;48.146;11.440;2024-02-26T10:34:12;93981.34;;;12.99;41.21
70684;BME280;58263;48.146;11.440;2024-02-26T10:36:38;93978.66;;;13.18;41.67
70684;BME280;58263;48.146;11.440;2024-02-26T10:39:06;93984.19;;;13.27;40.28
70684;BME280;58263;48.146;11.440;2024-02-26T10:41:33;93985.38;;;13.40;39.79
70684;BME280;58263;48.146;11.440;2024-02-26T10:43:58;93981.28;;;13.62;39.92
70684;BME280;58263;48.146;11.440;2024-02-26T10:46:25;93974.94;;;14.05;39.19
70684;BME280;58263;48.146;11.440;2024-02-26T10:48:51;93987.44;;;14.14;38.43
70684;BME280;58263;48.146;11.440;2024-02-26T10:51:24;93981.69;;;14.35;38.63
70684;BME280;58263;48.146;11.440;2024-02-26T10:53:55;93983.09;;;14.46;38.14
70684;BME280;58263;48.146;11.440;2024-02-26T10:56:24;93983.53;;;14.67;38.06
70684;BME280;58263;48.146;11.440;2024-02-26T10:58:51;93981.63;;;14.96;36.59
70684;BME280;58263;48.146;11.440;2024-02-26T11:01:18;93988.28;;;15.26;35.76
70684;BME280;58263;48.146;11.440;2024-02-26T11:03:44;93992.63;;;15.86;35.36
70684;BME280;58263;48.146;11.440;2024-02-26T11:06:12;93995.38;;;16.49;34.58
70684;BME280;58263;48.146;11.440;2024-02-26T11:08:38;94003.44;;;17.03;33.59
70684;BME280;58263;48.146;11.440;2024-02-26T11:11:04;94016.13;;;17.61;32.27
70684;BME280;58263;48.146;11.440;2024-02-26T11:13:31;94016.25;;;18.43;30.96
70684;BME280;58263;48.146;11.440;2024-02-26T11:15:56;94015.75;;;19.36;30.40
70684;BME280;58263;48.146;11.440;2024-02-26T11:18:23;94027.25;;;19.12;29.79
70684;BME280;58263;48.146;11.440;2024-02-26T11:20:49;94034.16;;;17.74;29.53
70684;BME280;58263;48.146;11.440;2024-02-26T11:23:15;94031.97;;;17.94;31.06
70684;BME280;58263;48.146;11.440;2024-02-26T11:25:40;94028.56;;;17.79;30.44
70684;BME280;58263;48.146;11.440;2024-02-26T11:28:10;94021.41;;;17.66;30.19
70684;BME280;58263;48.146;11.440;2024-02-26T11:30:39;94025.56;;;17.81;29.72
70684;BME280;58263;48.146;11.440;2024-02-26T11:33:08;94017.25;;;17.77;29.80
70684;BME280;58263;48.146;11.440;2024-02-26T11:35:36;94019.81;;;17.82;30.59
70684;BME280;58263;48.146;11.440;2024-02-26T11:38:01;94021.41;;;17.83;29.69
70684;BME280;58263;48.146;11.440;2024-02-26T11:40:27;94021.41;;;17.66;29.14
70684;BME280;58263;48.146;11.440;2024-02-26T11:42:53;94020.91;;;17.90;29.37
70684;BME280;58263;48.146;11.440;2024-02-26T11:48:02;94005.72;;;19.28;28.37
70684;BME280;58263;48.146;11.440;2024-02-26T11:50:35;94001.25;;;20.16;27.28
70684;BME280;58263;48.146;11.440;2024-02-26T11:55:45;93994.31;;;24.90;22.08
70684;BME280;58263;48.146;11.440;2024-02-26T11:58:10;93994.84;;;26.68;20.33
70684;BME280;58263;48.146;11.440;2024-02-26T12:00:35;93987.09;;;27.70;19.41
70684;BME280;58263;48.146;11.440;2024-02-26T12:03:01;93990.25;;;28.53;17.94
70684;BME280;58263;48.146;11.440;2024-02-26T12:05:32;93985.66;;;28.90;17.36
70684;BME280;58263;48.146;11.440;2024-02-26T12:08:03;93984.91;;;26.93;18.40
70684;BME280;58263;48.146;11.440;2024-02-26T12:10:38;93981.91;;;27.54;18.10
70684;BME280;58263;48.146;11.440;2024-02-26T12:13:08;93975.78;;;26.82;18.60
70684;BME280;58263;48.146;11.440;2024-02-26T12:15:37;93968.69;;;26.47;19.44
70684;BME280;58263;48.146;11.440;2024-02-26T12:18:05;93970.00;;;27.43;18.81
70684;BME280;58263;48.146;11.440;2024-02-26T12:20:31;93978.16;;;28.83;17.84
70684;BME280;58263;48.146;11.440;2024-02-26T12:22:57;93976.22;;;29.52;17.36
70684;BME280;58263;48.146;11.440;2024-02-26T12:25:28;93986.59;;;30.65;15.38
70684;BME280;58263;48.146;11.440;2024-02-26T12:27:54;93993.88;;;31.08;15.12
70684;BME280;58263;48.146;11.440;2024-02-26T12:30:19;93992.13;;;31.78;14.75
70684;BME280;58263;48.146;11.440;2024-02-26T12:32:46;93999.28;;;31.75;14.28
70684;BME280;58263;48.146;11.440;2024-02-26T12:35:12;94002.41;;;32.23;14.62
70684;BME280;58263;48.146;11.440;2024-02-26T12:37:38;94005.25;;;32.50;13.87
70684;BME280;58263;48.146;11.440;2024-02-26T12:40:08;94009.06;;;31.42;14.65
70684;BME280;58263;48.146;11.440;2024-02-26T12:42:34;94005.34;;;30.22;14.89
70684;BME280;58263;48.146;11.440;2024-02-26T12:45:05;93997.94;;;29.50;15.64
70684;BME280;58263;48.146;11.440;2024-02-26T12:47:38;94000.53;;;28.53;17.03
70684;BME280;58263;48.146;11.440;2024-02-26T12:50:04;94011.88;;;27.70;18.17
70684;BME280;58263;48.146;11.440;2024-02-26T12:52:33;94008.56;;;27.02;17.37
70684;BME280;58263;48.146;11.440;2024-02-26T12:54:58;94012.38;;;26.56;18.52